Terminal Aerodrome Forecast
Issued by NWS Goodland, KS

Home | Current Version | Previous Version | Graphics & Text | Print | Product List | Glossary On
Versions: 1 2 3 4 5 6 7 8 9 10 11 12 13 14 15 16 17 18 19 20 21 22 23
000
FTUS43 KGLD 031736
TAFGLD
TAF
KGLD 031736Z 0318/0418 36021G29KT P6SM BKN015
     FM032000 02012G20KT P6SM BKN035
     FM040000 06009KT P6SM SCT040 OVC100
     FM040500 05011KT 4SM -SN BR OVC015
      TEMPO 0407/0411 1 1/2SM -SN BR SCT007 OVC010
     FM041400 36015KT P6SM SCT025 BKN050=

USA.gov is the U.S. government's official web portal to all federal, state and local government web resources and services.